sensor_id;sensor_type;location;lat;lon;timestamp;temperature;humidity
16313;DHT22;8265;52.622;13.296;2022-10-14T00:00:26;8.00;99.90
16313;DHT22;8265;52.622;13.296;2022-10-14T00:05:47;7.90;99.90
16313;DHT22;8265;52.622;13.296;2022-10-14T00:11:09;7.90;99.90
16313;DHT22;8265;52.622;13.296;2022-10-14T00:16:30;7.70;99.90
16313;DHT22;8265;52.622;13.296;2022-10-14T00:21:50;7.60;99.90
16313;DHT22;8265;52.622;13.296;2022-10-14T00:27:11;7.50;99.90
16313;DHT22;8265;52.622;13.296;2022-10-14T00:32:32;7.50;99.90
16313;DHT22;8265;52.622;13.296;2022-10-14T00:37:53;7.40;99.90
16313;DHT22;8265;52.622;13.296;2022-10-14T00:43:14;7.30;99.90
16313;DHT22;8265;52.622;13.296;2022-10-14T00:48:35;7.30;99.90
16313;DHT22;8265;52.622;13.296;2022-10-14T00:53:56;7.20;99.90
16313;DHT22;8265;52.622;13.296;2022-10-14T00:59:17;7.20;99.90
16313;DHT22;8265;52.622;13.296;2022-10-14T01:04:38;7.20;99.90
16313;DHT22;8265;52.622;13.296;2022-10-14T01:10:02;7.10;99.90
16313;DHT22;8265;52.622;13.296;2022-10-14T01:15:21;7.10;99.90
16313;DHT22;8265;52.622;13.296;2022-10-14T01:21:10;7.10;99.90
16313;DHT22;8265;52.622;13.296;2022-10-14T01:26:04;7.00;99.90
16313;DHT22;8265;52.622;13.296;2022-10-14T01:31:24;7.00;99.90
16313;DHT22;8265;52.622;13.296;2022-10-14T01:36:44;7.10;99.90
16313;DHT22;8265;52.622;13.296;2022-10-14T01:42:06;7.00;99.90
16313;DHT22;8265;52.622;13.296;2022-10-14T01:47:26;7.10;99.90
16313;DHT22;8265;52.622;13.296;2022-10-14T01:52:47;7.10;99.90
16313;DHT22;8265;52.622;13.296;2022-10-14T01:58:08;7.00;99.90
16313;DHT22;8265;52.622;13.296;2022-10-14T02:03:38;6.90;99.90
16313;DHT22;8265;52.622;13.296;2022-10-14T02:08:58;6.90;99.90
16313;DHT22;8265;52.622;13.296;2022-10-14T02:14:15;6.70;99.90
16313;DHT22;8265;52.622;13.296;2022-10-14T02:19:34;6.60;99.90
16313;DHT22;8265;52.622;13.296;2022-10-14T02:24:53;6.50;99.90
16313;DHT22;8265;52.622;13.296;2022-10-14T02:30:14;6.50;99.90
16313;DHT22;8265;52.622;13.296;2022-10-14T02:35:34;6.50;99.90
16313;DHT22;8265;52.622;13.296;2022-10-14T02:40:55;6.50;99.90
16313;DHT22;8265;52.622;13.296;2022-10-14T02:46:19;6.40;99.90
16313;DHT22;8265;52.622;13.296;2022-10-14T02:51:38;6.40;99.90
16313;DHT22;8265;52.622;13.296;2022-10-14T02:56:58;6.50;99.90
16313;DHT22;8265;52.622;13.296;2022-10-14T03:02:19;6.70;99.90
16313;DHT22;8265;52.622;13.296;2022-10-14T03:07:40;6.90;99.90
16313;DHT22;8265;52.622;13.296;2022-10-14T03:13:01;7.10;99.90
16313;DHT22;8265;52.622;13.296;2022-10-14T03:18:22;7.20;99.90
16313;DHT22;8265;52.622;13.296;2022-10-14T03:23:43;7.20;99.90
16313;DHT22;8265;52.622;13.296;2022-10-14T03:29:04;7.20;99.90
16313;DHT22;8265;52.622;13.296;2022-10-14T03:34:25;7.20;99.90
16313;DHT22;8265;52.622;13.296;2022-10-14T03:39:46;7.20;99.90
16313;DHT22;8265;52.622;13.296;2022-10-14T03:45:08;7.00;99.90
16313;DHT22;8265;52.622;13.296;2022-10-14T03:50:28;7.00;99.90
16313;DHT22;8265;52.622;13.296;2022-10-14T03:55:49;6.90;99.90
16313;DHT22;8265;52.622;13.296;2022-10-14T04:01:10;6.70;99.90
16313;DHT22;8265;52.622;13.296;2022-10-14T04:06:31;6.60;99.90
16313;DHT22;8265;52.622;13.296;2022-10-14T04:11:52;6.60;99.90
16313;DHT22;8265;52.622;13.296;2022-10-14T04:17:12;6.50;99.90
16313;DHT22;8265;52.622;13.296;2022-10-14T04:22:33;6.60;99.90
16313;DHT22;8265;52.622;13.296;2022-10-14T04:27:54;6.50;99.90
16313;DHT22;8265;52.622;13.296;2022-10-14T04:33:15;6.50;99.90
16313;DHT22;8265;52.622;13.296;2022-10-14T04:38:36;6.50;99.90
16313;DHT22;8265;52.622;13.296;2022-10-14T04:43:57;6.60;99.90
16313;DHT22;8265;52.622;13.296;2022-10-14T04:49:18;6.70;99.90
16313;DHT22;8265;52.622;13.296;2022-10-14T04:54:39;7.00;99.90
16313;DHT22;8265;52.622;13.296;2022-10-14T05:00:00;7.10;99.90
16313;DHT22;8265;52.622;13.296;2022-10-14T05:05:21;7.10;99.90
16313;DHT22;8265;52.622;13.296;2022-10-14T05:10:42;7.10;99.90
16313;DHT22;8265;52.622;13.296;2022-10-14T05:16:04;7.20;99.90
16313;DHT22;8265;52.622;13.296;2022-10-14T05:21:24;7.30;99.90
16313;DHT22;8265;52.622;13.296;2022-10-14T05:26:45;7.50;99.90
16313;DHT22;8265;52.622;13.296;2022-10-14T05:32:06;7.60;99.90
16313;DHT22;8265;52.622;13.296;2022-10-14T05:37:27;7.60;99.90
16313;DHT22;8265;52.622;13.296;2022-10-14T05:42:48;7.80;99.90
16313;DHT22;8265;52.622;13.296;2022-10-14T05:48:09;7.80;99.90
16313;DHT22;8265;52.622;13.296;2022-10-14T05:53:30;8.00;99.90
16313;DHT22;8265;52.622;13.296;2022-10-14T05:58:51;8.10;99.90
16313;DHT22;8265;52.622;13.296;2022-10-14T06:04:17;8.20;99.90
16313;DHT22;8265;52.622;13.296;2022-10-14T06:09:33;8.40;99.90
16313;DHT22;8265;52.622;13.296;2022-10-14T06:14:54;9.00;99.90
16313;DHT22;8265;52.622;13.296;2022-10-14T06:20:16;9.40;99.90
16313;DHT22;8265;52.622;13.296;2022-10-14T06:25:36;9.00;99.90
16313;DHT22;8265;52.622;13.296;2022-10-14T06:30:57;9.20;99.90
16313;DHT22;8265;52.622;13.296;2022-10-14T06:36:18;9.10;99.90
16313;DHT22;8265;52.622;13.296;2022-10-14T06:41:38;9.20;99.90
16313;DHT22;8265;52.622;13.296;2022-10-14T06:46:59;9.30;99.90
16313;DHT22;8265;52.622;13.296;2022-10-14T06:52:20;9.50;99.90
16313;DHT22;8265;52.622;13.296;2022-10-14T06:57:41;9.70;99.90
16313;DHT22;8265;52.622;13.296;2022-10-14T07:03:02;10.00;99.90
16313;DHT22;8265;52.622;13.296;2022-10-14T07:08:23;10.00;99.90
16313;DHT22;8265;52.622;13.296;2022-10-14T07:13:44;10.10;99.90
16313;DHT22;8265;52.622;13.296;2022-10-14T07:19:05;10.10;99.90
16313;DHT22;8265;52.622;13.296;2022-10-14T07:24:26;10.40;99.90
16313;DHT22;8265;52.622;13.296;2022-10-14T07:29:52;10.60;99.90
16313;DHT22;8265;52.622;13.296;2022-10-14T07:35:09;10.70;99.90
16313;DHT22;8265;52.622;13.296;2022-10-14T07:40:29;10.80;99.90
16313;DHT22;8265;52.622;13.296;2022-10-14T07:45:50;11.10;99.90
16313;DHT22;8265;52.622;13.296;2022-10-14T07:51:11;11.60;99.90
16313;DHT22;8265;52.622;13.296;2022-10-14T07:56:32;11.50;99.90
16313;DHT22;8265;52.622;13.296;2022-10-14T08:01:53;11.80;99.90
16313;DHT22;8265;52.622;13.296;2022-10-14T08:07:14;12.00;99.90
16313;DHT22;8265;52.622;13.296;2022-10-14T08:12:35;12.00;99.90
16313;DHT22;8265;52.622;13.296;2022-10-14T08:17:56;11.90;99.90
16313;DHT22;8265;52.622;13.296;2022-10-14T08:23:17;12.10;99.90
16313;DHT22;8265;52.622;13.296;2022-10-14T08:28:38;12.00;99.90
16313;DHT22;8265;52.622;13.296;2022-10-14T08:33:59;12.30;99.90
16313;DHT22;8265;52.622;13.296;2022-10-14T08:39:20;12.70;99.90
16313;DHT22;8265;52.622;13.296;2022-10-14T08:44:42;12.90;99.90
16313;DHT22;8265;52.622;13.296;2022-10-14T08:50:03;13.10;99.90
16313;DHT22;8265;52.622;13.296;2022-10-14T08:55:26;13.50;99.90
16313;DHT22;8265;52.622;13.296;2022-10-14T09:00:44;13.80;99.90
16313;DHT22;8265;52.622;13.296;2022-10-14T09:06:06;14.10;99.90
16313;DHT22;8265;52.622;13.296;2022-10-14T09:11:25;14.30;99.90
16313;DHT22;8265;52.622;13.296;2022-10-14T09:16:47;14.80;99.90
16313;DHT22;8265;52.622;13.296;2022-10-14T09:22:10;15.00;99.90
16313;DHT22;8265;52.622;13.296;2022-10-14T09:27:28;15.40;99.90
16313;DHT22;8265;52.622;13.296;2022-10-14T09:32:50;15.50;99.90
16313;DHT22;8265;52.622;13.296;2022-10-14T09:38:10;15.70;99.90
16313;DHT22;8265;52.622;13.296;2022-10-14T09:43:31;16.40;99.90
16313;DHT22;8265;52.622;13.296;2022-10-14T09:48:52;16.40;99.90
16313;DHT22;8265;52.622;13.296;2022-10-14T09:54:21;17.00;99.90
16313;DHT22;8265;52.622;13.296;2022-10-14T09:59:37;17.10;99.90
16313;DHT22;8265;52.622;13.296;2022-10-14T10:04:55;17.50;99.90
16313;DHT22;8265;52.622;13.296;2022-10-14T10:10:20;17.40;99.90
16313;DHT22;8265;52.622;13.296;2022-10-14T10:15:37;16.80;99.90
16313;DHT22;8265;52.622;13.296;2022-10-14T10:21:03;16.60;99.90
16313;DHT22;8265;52.622;13.296;2022-10-14T10:26:20;16.70;99.90
16313;DHT22;8265;52.622;13.296;2022-10-14T10:31:51;16.70;99.90
16313;DHT22;8265;52.622;13.296;2022-10-14T10:37:03;16.70;99.90
16313;DHT22;8265;52.622;13.296;2022-10-14T10:42:23;16.90;99.90
16313;DHT22;8265;52.622;13.296;2022-10-14T10:47:45;16.90;99.90
16313;DHT22;8265;52.622;13.296;2022-10-14T10:53:12;17.20;99.90
16313;DHT22;8265;52.622;13.296;2022-10-14T10:58:33;17.60;99.90
16313;DHT22;8265;52.622;13.296;2022-10-14T11:03:53;17.50;99.90
16313;DHT22;8265;52.622;13.296;2022-10-14T11:09:09;17.50;99.90
16313;DHT22;8265;52.622;13.296;2022-10-14T11:14:33;17.30;99.90
16313;DHT22;8265;52.622;13.296;2022-10-14T11:19:51;17.50;99.90
16313;DHT22;8265;52.622;13.296;2022-10-14T11:25:14;17.80;99.90
16313;DHT22;8265;52.622;13.296;2022-10-14T11:30:36;17.30;99.90
16313;DHT22;8265;52.622;13.296;2022-10-14T11:35:53;16.90;99.90
16313;DHT22;8265;52.622;13.296;2022-10-14T11:41:16;17.20;99.90
16313;DHT22;8265;52.622;13.296;2022-10-14T11:46:34;17.30;99.90
16313;DHT22;8265;52.622;13.296;2022-10-14T11:51:56;17.50;99.90
16313;DHT22;8265;52.622;13.296;2022-10-14T11:57:18;17.70;99.90
16313;DHT22;8265;52.622;13.296;2022-10-14T12:02:39;17.90;99.90
16313;DHT22;8265;52.622;13.296;2022-10-14T12:08:04;17.60;99.90
16313;DHT22;8265;52.622;13.296;2022-10-14T12:13:19;17.50;99.90
16313;DHT22;8265;52.622;13.296;2022-10-14T12:18:39;17.40;99.90
16313;DHT22;8265;52.622;13.296;2022-10-14T12:24:02;17.60;99.90
16313;DHT22;8265;52.622;13.296;2022-10-14T12:29:22;17.70;99.90
16313;DHT22;8265;52.622;13.296;2022-10-14T12:34:42;17.50;99.90
16313;DHT22;8265;52.622;13.296;2022-10-14T12:40:26;17.60;99.90
16313;DHT22;8265;52.622;13.296;2022-10-14T12:45:25;17.20;99.90
16313;DHT22;8265;52.622;13.296;2022-10-14T12:50:45;16.90;99.90
16313;DHT22;8265;52.622;13.296;2022-10-14T12:56:06;16.90;99.90
16313;DHT22;8265;52.622;13.296;2022-10-14T13:01:27;17.70;99.90
16313;DHT22;8265;52.622;13.296;2022-10-14T13:07:13;18.00;99.90
16313;DHT22;8265;52.622;13.296;2022-10-14T13:12:40;17.90;99.90
16313;DHT22;8265;52.622;13.296;2022-10-14T13:17:42;17.50;99.90
16313;DHT22;8265;52.622;13.296;2022-10-14T13:22:51;17.60;99.90
16313;DHT22;8265;52.622;13.296;2022-10-14T13:28:21;17.90;99.90
16313;DHT22;8265;52.622;13.296;2022-10-14T13:33:36;17.50;99.90
16313;DHT22;8265;52.622;13.296;2022-10-14T13:38:54;17.20;99.90
16313;DHT22;8265;52.622;13.296;2022-10-14T13:44:15;17.10;99.90
16313;DHT22;8265;52.622;13.296;2022-10-14T13:49:36;17.10;99.90
16313;DHT22;8265;52.622;13.296;2022-10-14T13:55:17;17.10;99.90
16313;DHT22;8265;52.622;13.296;2022-10-14T14:00:31;17.20;99.90
16313;DHT22;8265;52.622;13.296;2022-10-14T14:05:39;17.40;99.90
16313;DHT22;8265;52.622;13.296;2022-10-14T14:11:01;17.30;99.90
16313;DHT22;8265;52.622;13.296;2022-10-14T14:16:21;17.20;99.90
16313;DHT22;8265;52.622;13.296;2022-10-14T14:21:42;17.10;99.90
16313;DHT22;8265;52.622;13.296;2022-10-14T14:27:03;17.00;99.90
16313;DHT22;8265;52.622;13.296;2022-10-14T14:32:29;17.10;99.90
16313;DHT22;8265;52.622;13.296;2022-10-14T14:37:45;17.00;99.90
16313;DHT22;8265;52.622;13.296;2022-10-14T14:43:07;17.00;99.90
16313;DHT22;8265;52.622;13.296;2022-10-14T14:48:26;16.90;99.90
16313;DHT22;8265;52.622;13.296;2022-10-14T14:53:52;16.80;99.90
16313;DHT22;8265;52.622;13.296;2022-10-14T14:59:15;17.10;99.90
16313;DHT22;8265;52.622;13.296;2022-10-14T15:04:31;17.30;99.90
16313;DHT22;8265;52.622;13.296;2022-10-14T15:09:51;17.10;99.90
16313;DHT22;8265;52.622;13.296;2022-10-14T15:15:25;16.70;99.90
16313;DHT22;8265;52.622;13.296;2022-10-14T15:20:33;16.40;99.90
16313;DHT22;8265;52.622;13.296;2022-10-14T15:25:57;16.10;99.90
16313;DHT22;8265;52.622;13.296;2022-10-14T15:31:14;15.70;99.90
16313;DHT22;8265;52.622;13.296;2022-10-14T15:36:35;15.30;99.90
16313;DHT22;8265;52.622;13.296;2022-10-14T15:41:56;15.10;99.90
16313;DHT22;8265;52.622;13.296;2022-10-14T15:47:17;14.80;99.90
16313;DHT22;8265;52.622;13.296;2022-10-14T15:52:38;14.80;99.90
16313;DHT22;8265;52.622;13.296;2022-10-14T15:57:59;14.80;99.90
16313;DHT22;8265;52.622;13.296;2022-10-14T16:03:20;15.20;99.90
16313;DHT22;8265;52.622;13.296;2022-10-14T16:08:41;15.10;99.90
16313;DHT22;8265;52.622;13.296;2022-10-14T16:14:02;14.50;99.90
16313;DHT22;8265;52.622;13.296;2022-10-14T16:19:23;14.30;99.90
16313;DHT22;8265;52.622;13.296;2022-10-14T16:24:44;14.00;99.90
16313;DHT22;8265;52.622;13.296;2022-10-14T16:30:08;14.30;99.90
16313;DHT22;8265;52.622;13.296;2022-10-14T16:35:26;14.30;99.90
16313;DHT22;8265;52.622;13.296;2022-10-14T16:40:55;14.10;99.90
16313;DHT22;8265;52.622;13.296;2022-10-14T16:46:10;14.00;99.90
16313;DHT22;8265;52.622;13.296;2022-10-14T16:51:29;14.10;99.90
16313;DHT22;8265;52.622;13.296;2022-10-14T16:56:50;14.00;99.90
16313;DHT22;8265;52.622;13.296;2022-10-14T17:02:13;13.90;99.90
16313;DHT22;8265;52.622;13.296;2022-10-14T17:07:32;13.60;99.90
16313;DHT22;8265;52.622;13.296;2022-10-14T17:12:53;13.40;99.90
16313;DHT22;8265;52.622;13.296;2022-10-14T17:18:14;13.30;99.90
16313;DHT22;8265;52.622;13.296;2022-10-14T17:23:35;13.20;99.90
16313;DHT22;8265;52.622;13.296;2022-10-14T17:28:56;13.10;99.90
16313;DHT22;8265;52.622;13.296;2022-10-14T17:34:16;13.50;99.90
16313;DHT22;8265;52.622;13.296;2022-10-14T17:39:38;13.50;99.90
16313;DHT22;8265;52.622;13.296;2022-10-14T17:44:59;13.30;99.90
16313;DHT22;8265;52.622;13.296;2022-10-14T17:50:19;13.30;99.90
16313;DHT22;8265;52.622;13.296;2022-10-14T17:55:40;13.10;99.90
16313;DHT22;8265;52.622;13.296;2022-10-14T18:01:05;13.10;99.90
16313;DHT22;8265;52.622;13.296;2022-10-14T18:06:23;13.10;99.90
16313;DHT22;8265;52.622;13.296;2022-10-14T18:11:43;13.00;99.90
16313;DHT22;8265;52.622;13.296;2022-10-14T18:17:04;13.30;99.90
16313;DHT22;8265;52.622;13.296;2022-10-14T18:22:25;13.40;99.90
16313;DHT22;8265;52.622;13.296;2022-10-14T18:27:46;13.20;99.90
16313;DHT22;8265;52.622;13.296;2022-10-14T18:33:07;13.00;99.90
16313;DHT22;8265;52.622;13.296;2022-10-14T18:38:28;13.10;99.90
16313;DHT22;8265;52.622;13.296;2022-10-14T18:43:49;13.00;99.90
16313;DHT22;8265;52.622;13.296;2022-10-14T18:49:10;13.10;99.90
16313;DHT22;8265;52.622;13.296;2022-10-14T18:54:31;13.10;99.90
16313;DHT22;8265;52.622;13.296;2022-10-14T18:59:52;13.10;99.90
16313;DHT22;8265;52.622;13.296;2022-10-14T19:05:13;13.00;99.90
16313;DHT22;8265;52.622;13.296;2022-10-14T19:10:34;12.90;99.90
16313;DHT22;8265;52.622;13.296;2022-10-14T19:16:00;12.80;99.90
16313;DHT22;8265;52.622;13.296;2022-10-14T19:21:16;13.00;99.90
16313;DHT22;8265;52.622;13.296;2022-10-14T19:26:37;13.10;99.90
16313;DHT22;8265;52.622;13.296;2022-10-14T19:31:58;13.10;99.90
16313;DHT22;8265;52.622;13.296;2022-10-14T19:37:19;13.10;99.90
16313;DHT22;8265;52.622;13.296;2022-10-14T19:42:39;13.10;99.90
16313;DHT22;8265;52.622;13.296;2022-10-14T19:48:00;13.20;99.90
16313;DHT22;8265;52.622;13.296;2022-10-14T19:53:21;13.30;99.90
16313;DHT22;8265;52.622;13.296;2022-10-14T19:58:42;13.20;99.90
16313;DHT22;8265;52.622;13.296;2022-10-14T20:04:03;13.30;99.90
16313;DHT22;8265;52.622;13.296;2022-10-14T20:09:24;13.40;99.90
16313;DHT22;8265;52.622;13.296;2022-10-14T20:14:45;13.40;99.90
16313;DHT22;8265;52.622;13.296;2022-10-14T20:20:08;13.50;99.90
16313;DHT22;8265;52.622;13.296;2022-10-14T20:25:27;13.60;99.90
16313;DHT22;8265;52.622;13.296;2022-10-14T20:30:48;13.60;99.90
16313;DHT22;8265;52.622;13.296;2022-10-14T20:36:10;13.60;99.90
16313;DHT22;8265;52.622;13.296;2022-10-14T20:41:30;13.50;99.90
16313;DHT22;8265;52.622;13.296;2022-10-14T20:46:51;13.60;99.90
16313;DHT22;8265;52.622;13.296;2022-10-14T20:52:12;13.60;99.90
16313;DHT22;8265;52.622;13.296;2022-10-14T20:57:33;13.80;99.90
16313;DHT22;8265;52.622;13.296;2022-10-14T21:02:54;13.80;99.90
16313;DHT22;8265;52.622;13.296;2022-10-14T21:08:15;13.80;99.90
16313;DHT22;8265;52.622;13.296;2022-10-14T21:13:36;13.90;99.90
16313;DHT22;8265;52.622;13.296;2022-10-14T21:18:57;13.80;99.90
16313;DHT22;8265;52.622;13.296;2022-10-14T21:24:18;13.80;99.90
16313;DHT22;8265;52.622;13.296;2022-10-14T21:29:39;13.80;99.90
16313;DHT22;8265;52.622;13.296;2022-10-14T21:35:00;13.70;99.90
16313;DHT22;8265;52.622;13.296;2022-10-14T21:40:21;13.70;99.90
16313;DHT22;8265;52.622;13.296;2022-10-14T21:45:42;13.70;99.90
16313;DHT22;8265;52.622;13.296;2022-10-14T21:51:04;13.80;99.90
16313;DHT22;8265;52.622;13.296;2022-10-14T21:56:24;13.80;99.90
16313;DHT22;8265;52.622;13.296;2022-10-14T22:01:44;13.80;99.90
16313;DHT22;8265;52.622;13.296;2022-10-14T22:07:05;13.90;99.90
16313;DHT22;8265;52.622;13.296;2022-10-14T22:12:26;13.90;99.90
16313;DHT22;8265;52.622;13.296;2022-10-14T22:17:47;13.90;99.90
16313;DHT22;8265;52.622;13.296;2022-10-14T22:23:08;14.00;99.90
16313;DHT22;8265;52.622;13.296;2022-10-14T22:28:29;14.00;99.90
16313;DHT22;8265;52.622;13.296;2022-10-14T22:33:50;13.90;99.90
16313;DHT22;8265;52.622;13.296;2022-10-14T22:39:12;13.90;99.90
16313;DHT22;8265;52.622;13.296;2022-10-14T22:44:32;13.90;99.90
16313;DHT22;8265;52.622;13.296;2022-10-14T22:49:53;13.90;99.90
16313;DHT22;8265;52.622;13.296;2022-10-14T22:55:14;13.80;99.90
16313;DHT22;8265;52.622;13.296;2022-10-14T23:00:35;13.80;99.90
16313;DHT22;8265;52.622;13.296;2022-10-14T23:06:00;13.70;99.90
16313;DHT22;8265;52.622;13.296;2022-10-14T23:11:18;13.70;99.90
16313;DHT22;8265;52.622;13.296;2022-10-14T23:16:38;13.70;99.90
16313;DHT22;8265;52.622;13.296;2022-10-14T23:21:59;13.70;99.90
16313;DHT22;8265;52.622;13.296;2022-10-14T23:27:20;13.70;99.90
16313;DHT22;8265;52.622;13.296;2022-10-14T23:32:41;13.70;99.90
16313;DHT22;8265;52.622;13.296;2022-10-14T23:38:02;13.70;99.90
16313;DHT22;8265;52.622;13.296;2022-10-14T23:43:23;13.70;99.90
16313;DHT22;8265;52.622;13.296;2022-10-14T23:48:44;13.70;99.90
16313;DHT22;8265;52.622;13.296;2022-10-14T23:54:05;13.70;99.90
16313;DHT22;8265;52.622;13.296;2022-10-14T23:59:26;13.70;99.90
